sensor_id;sensor_type;location;lat;lon;timestamp;temperature;humidity
17815;DHT22;9031;50.974;11.330;2022-10-16T00:01:24;16.10;99.90
17815;DHT22;9031;50.974;11.330;2022-10-16T00:03:51;16.00;99.90
17815;DHT22;9031;50.974;11.330;2022-10-16T00:06:19;16.00;99.90
17815;DHT22;9031;50.974;11.330;2022-10-16T00:08:45;15.80;99.90
17815;DHT22;9031;50.974;11.330;2022-10-16T00:11:18;15.70;99.90
17815;DHT22;9031;50.974;11.330;2022-10-16T00:13:46;15.60;99.90
17815;DHT22;9031;50.974;11.330;2022-10-16T00:16:13;15.50;99.90
17815;DHT22;9031;50.974;11.330;2022-10-16T00:18:39;15.50;99.90
17815;DHT22;9031;50.974;11.330;2022-10-16T00:21:14;15.50;99.90
17815;DHT22;9031;50.974;11.330;2022-10-16T00:23:40;15.50;99.90
17815;DHT22;9031;50.974;11.330;2022-10-16T00:26:08;15.40;99.90
17815;DHT22;9031;50.974;11.330;2022-10-16T00:28:35;15.40;99.90
17815;DHT22;9031;50.974;11.330;2022-10-16T00:31:05;15.30;99.90
17815;DHT22;9031;50.974;11.330;2022-10-16T00:33:30;15.40;99.90
17815;DHT22;9031;50.974;11.330;2022-10-16T00:35:58;15.30;99.90
17815;DHT22;9031;50.974;11.330;2022-10-16T00:38:24;15.10;99.90
17815;DHT22;9031;50.974;11.330;2022-10-16T00:40:50;14.90;99.90
17815;DHT22;9031;50.974;11.330;2022-10-16T00:43:55;14.90;99.90
17815;DHT22;9031;50.974;11.330;2022-10-16T00:49:00;14.70;99.90
17815;DHT22;9031;50.974;11.330;2022-10-16T00:51:32;14.70;99.90
17815;DHT22;9031;50.974;11.330;2022-10-16T00:53:58;14.60;99.90
17815;DHT22;9031;50.974;11.330;2022-10-16T00:56:24;14.50;99.90
17815;DHT22;9031;50.974;11.330;2022-10-16T00:58:49;14.50;99.90
17815;DHT22;9031;50.974;11.330;2022-10-16T01:01:15;14.40;99.90
17815;DHT22;9031;50.974;11.330;2022-10-16T01:03:40;14.40;99.90
17815;DHT22;9031;50.974;11.330;2022-10-16T01:06:25;14.30;99.90
17815;DHT22;9031;50.974;11.330;2022-10-16T01:09:21;14.30;99.90
17815;DHT22;9031;50.974;11.330;2022-10-16T01:11:57;14.30;99.90
17815;DHT22;9031;50.974;11.330;2022-10-16T01:14:37;14.30;99.90
17815;DHT22;9031;50.974;11.330;2022-10-16T01:17:11;14.40;99.90
17815;DHT22;9031;50.974;11.330;2022-10-16T01:22:24;14.40;99.90
17815;DHT22;9031;50.974;11.330;2022-10-16T01:24:52;14.40;99.90
17815;DHT22;9031;50.974;11.330;2022-10-16T01:27:26;14.40;99.90
17815;DHT22;9031;50.974;11.330;2022-10-16T01:30:04;14.40;99.90
17815;DHT22;9031;50.974;11.330;2022-10-16T01:32:42;14.30;99.90
17815;DHT22;9031;50.974;11.330;2022-10-16T01:35:29;14.20;99.90
17815;DHT22;9031;50.974;11.330;2022-10-16T01:40:27;14.10;99.90
17815;DHT22;9031;50.974;11.330;2022-10-16T01:43:01;14.10;99.90
17815;DHT22;9031;50.974;11.330;2022-10-16T01:45:30;14.10;99.90
17815;DHT22;9031;50.974;11.330;2022-10-16T01:47:57;14.10;99.90
17815;DHT22;9031;50.974;11.330;2022-10-16T01:50:24;14.00;99.90
17815;DHT22;9031;50.974;11.330;2022-10-16T01:52:52;14.00;99.90
17815;DHT22;9031;50.974;11.330;2022-10-16T01:55:23;13.90;99.90
17815;DHT22;9031;50.974;11.330;2022-10-16T01:57:50;13.90;99.90
17815;DHT22;9031;50.974;11.330;2022-10-16T02:00:18;13.90;99.90
17815;DHT22;9031;50.974;11.330;2022-10-16T02:02:46;13.80;99.90
17815;DHT22;9031;50.974;11.330;2022-10-16T02:07:44;13.70;99.90
17815;DHT22;9031;50.974;11.330;2022-10-16T02:10:09;13.70;99.90
17815;DHT22;9031;50.974;11.330;2022-10-16T02:12:38;13.70;99.90
17815;DHT22;9031;50.974;11.330;2022-10-16T02:15:06;13.70;99.90
17815;DHT22;9031;50.974;11.330;2022-10-16T02:17:32;13.70;99.90
17815;DHT22;9031;50.974;11.330;2022-10-16T02:19:58;13.70;99.90
17815;DHT22;9031;50.974;11.330;2022-10-16T02:22:34;13.60;99.90
17815;DHT22;9031;50.974;11.330;2022-10-16T02:25:27;13.60;99.90
17815;DHT22;9031;50.974;11.330;2022-10-16T02:28:04;13.60;99.90
17815;DHT22;9031;50.974;11.330;2022-10-16T02:30:36;13.80;99.90
17815;DHT22;9031;50.974;11.330;2022-10-16T02:33:06;13.90;99.90
17815;DHT22;9031;50.974;11.330;2022-10-16T02:35:32;14.00;99.90
17815;DHT22;9031;50.974;11.330;2022-10-16T02:37:59;14.00;99.90
17815;DHT22;9031;50.974;11.330;2022-10-16T02:40:25;14.00;99.90
17815;DHT22;9031;50.974;11.330;2022-10-16T02:42:54;14.00;99.90
17815;DHT22;9031;50.974;11.330;2022-10-16T02:45:20;14.10;99.90
17815;DHT22;9031;50.974;11.330;2022-10-16T02:47:46;14.10;99.90
17815;DHT22;9031;50.974;11.330;2022-10-16T02:50:12;14.20;99.90
17815;DHT22;9031;50.974;11.330;2022-10-16T02:52:37;14.10;99.90
17815;DHT22;9031;50.974;11.330;2022-10-16T02:55:03;14.10;99.90
17815;DHT22;9031;50.974;11.330;2022-10-16T02:57:29;14.10;99.90
17815;DHT22;9031;50.974;11.330;2022-10-16T02:59:54;14.10;99.90
17815;DHT22;9031;50.974;11.330;2022-10-16T03:02:20;14.00;99.90
17815;DHT22;9031;50.974;11.330;2022-10-16T03:04:45;14.00;99.90
17815;DHT22;9031;50.974;11.330;2022-10-16T03:07:11;14.00;99.90
17815;DHT22;9031;50.974;11.330;2022-10-16T03:09:36;14.10;99.90
17815;DHT22;9031;50.974;11.330;2022-10-16T03:12:02;14.00;99.90
17815;DHT22;9031;50.974;11.330;2022-10-16T03:14:27;14.00;99.90
17815;DHT22;9031;50.974;11.330;2022-10-16T03:16:53;14.10;99.90
17815;DHT22;9031;50.974;11.330;2022-10-16T03:19:18;14.00;99.90
17815;DHT22;9031;50.974;11.330;2022-10-16T03:21:44;13.90;99.90
17815;DHT22;9031;50.974;11.330;2022-10-16T03:24:10;13.80;99.90
17815;DHT22;9031;50.974;11.330;2022-10-16T03:26:36;13.80;99.90
17815;DHT22;9031;50.974;11.330;2022-10-16T03:29:01;13.80;99.90
17815;DHT22;9031;50.974;11.330;2022-10-16T03:31:28;13.80;99.90
17815;DHT22;9031;50.974;11.330;2022-10-16T03:33:54;13.70;99.90
17815;DHT22;9031;50.974;11.330;2022-10-16T03:36:19;13.70;99.90
17815;DHT22;9031;50.974;11.330;2022-10-16T03:38:45;13.60;99.90
17815;DHT22;9031;50.974;11.330;2022-10-16T03:41:10;13.60;99.90
17815;DHT22;9031;50.974;11.330;2022-10-16T03:43:36;13.60;99.90
17815;DHT22;9031;50.974;11.330;2022-10-16T03:46:01;13.50;99.90
17815;DHT22;9031;50.974;11.330;2022-10-16T03:48:27;13.50;99.90
17815;DHT22;9031;50.974;11.330;2022-10-16T03:50:52;13.40;99.90
17815;DHT22;9031;50.974;11.330;2022-10-16T03:53:18;13.40;99.90
17815;DHT22;9031;50.974;11.330;2022-10-16T03:55:44;13.50;99.90
17815;DHT22;9031;50.974;11.330;2022-10-16T03:58:10;13.40;99.90
17815;DHT22;9031;50.974;11.330;2022-10-16T04:00:36;13.30;99.90
17815;DHT22;9031;50.974;11.330;2022-10-16T04:03:04;13.30;99.90
17815;DHT22;9031;50.974;11.330;2022-10-16T04:05:30;13.30;99.90
17815;DHT22;9031;50.974;11.330;2022-10-16T04:07:55;13.40;99.90
17815;DHT22;9031;50.974;11.330;2022-10-16T04:10:21;13.40;99.90
17815;DHT22;9031;50.974;11.330;2022-10-16T04:12:46;13.40;99.90
17815;DHT22;9031;50.974;11.330;2022-10-16T04:15:12;13.40;99.90
17815;DHT22;9031;50.974;11.330;2022-10-16T04:17:37;13.40;99.90
17815;DHT22;9031;50.974;11.330;2022-10-16T04:20:03;13.40;99.90
17815;DHT22;9031;50.974;11.330;2022-10-16T04:22:29;13.40;99.90
17815;DHT22;9031;50.974;11.330;2022-10-16T04:24:54;13.40;99.90
17815;DHT22;9031;50.974;11.330;2022-10-16T04:27:20;13.40;99.90
17815;DHT22;9031;50.974;11.330;2022-10-16T04:29:45;13.50;99.90
17815;DHT22;9031;50.974;11.330;2022-10-16T04:32:11;13.50;99.90
17815;DHT22;9031;50.974;11.330;2022-10-16T04:34:36;13.50;99.90
17815;DHT22;9031;50.974;11.330;2022-10-16T04:37:04;13.50;99.90
17815;DHT22;9031;50.974;11.330;2022-10-16T04:39:29;13.50;99.90
17815;DHT22;9031;50.974;11.330;2022-10-16T04:41:55;13.50;99.90
17815;DHT22;9031;50.974;11.330;2022-10-16T04:44:20;13.50;99.90
17815;DHT22;9031;50.974;11.330;2022-10-16T04:46:46;13.40;99.90
17815;DHT22;9031;50.974;11.330;2022-10-16T04:49:11;13.40;99.90
17815;DHT22;9031;50.974;11.330;2022-10-16T04:51:37;13.30;99.90
17815;DHT22;9031;50.974;11.330;2022-10-16T04:54:02;13.30;99.90
17815;DHT22;9031;50.974;11.330;2022-10-16T04:56:28;13.30;99.90
17815;DHT22;9031;50.974;11.330;2022-10-16T04:58:53;13.30;99.90
17815;DHT22;9031;50.974;11.330;2022-10-16T05:01:19;13.30;99.90
17815;DHT22;9031;50.974;11.330;2022-10-16T05:03:44;13.30;99.90
17815;DHT22;9031;50.974;11.330;2022-10-16T05:06:10;13.30;99.90
17815;DHT22;9031;50.974;11.330;2022-10-16T05:08:35;13.40;99.90
17815;DHT22;9031;50.974;11.330;2022-10-16T05:11:01;13.40;99.90
17815;DHT22;9031;50.974;11.330;2022-10-16T05:13:27;13.40;99.90
17815;DHT22;9031;50.974;11.330;2022-10-16T05:15:52;13.40;99.90
17815;DHT22;9031;50.974;11.330;2022-10-16T05:18:18;13.40;99.90
17815;DHT22;9031;50.974;11.330;2022-10-16T05:20:43;13.50;99.90
17815;DHT22;9031;50.974;11.330;2022-10-16T05:23:09;13.60;99.90
17815;DHT22;9031;50.974;11.330;2022-10-16T05:25:36;13.60;99.90
17815;DHT22;9031;50.974;11.330;2022-10-16T05:28:02;13.60;99.90
17815;DHT22;9031;50.974;11.330;2022-10-16T05:30:27;13.60;99.90
17815;DHT22;9031;50.974;11.330;2022-10-16T05:32:53;13.70;99.90
17815;DHT22;9031;50.974;11.330;2022-10-16T05:35:19;13.70;99.90
17815;DHT22;9031;50.974;11.330;2022-10-16T05:37:45;13.70;99.90
17815;DHT22;9031;50.974;11.330;2022-10-16T05:40:11;13.80;99.90
17815;DHT22;9031;50.974;11.330;2022-10-16T05:42:38;13.80;99.90
17815;DHT22;9031;50.974;11.330;2022-10-16T05:45:05;13.80;99.90
17815;DHT22;9031;50.974;11.330;2022-10-16T05:47:30;13.80;99.90
17815;DHT22;9031;50.974;11.330;2022-10-16T05:49:56;13.80;99.90
17815;DHT22;9031;50.974;11.330;2022-10-16T05:52:21;13.80;99.90
17815;DHT22;9031;50.974;11.330;2022-10-16T05:54:47;13.90;99.90
17815;DHT22;9031;50.974;11.330;2022-10-16T05:57:12;13.90;99.90
17815;DHT22;9031;50.974;11.330;2022-10-16T05:59:38;13.90;99.90
17815;DHT22;9031;50.974;11.330;2022-10-16T06:02:03;14.00;99.90
17815;DHT22;9031;50.974;11.330;2022-10-16T06:04:29;14.00;99.90
17815;DHT22;9031;50.974;11.330;2022-10-16T06:06:58;14.00;99.90
17815;DHT22;9031;50.974;11.330;2022-10-16T06:09:25;14.10;99.90
17815;DHT22;9031;50.974;11.330;2022-10-16T06:11:51;14.10;99.90
17815;DHT22;9031;50.974;11.330;2022-10-16T06:14:16;14.10;99.90
17815;DHT22;9031;50.974;11.330;2022-10-16T06:16:42;14.10;99.90
17815;DHT22;9031;50.974;11.330;2022-10-16T06:19:07;14.10;99.90
17815;DHT22;9031;50.974;11.330;2022-10-16T06:21:34;14.10;99.90
17815;DHT22;9031;50.974;11.330;2022-10-16T06:24:00;14.30;99.90
17815;DHT22;9031;50.974;11.330;2022-10-16T06:26:27;14.40;99.90
17815;DHT22;9031;50.974;11.330;2022-10-16T06:28:57;14.40;99.90
17815;DHT22;9031;50.974;11.330;2022-10-16T06:31:23;14.50;99.90
17815;DHT22;9031;50.974;11.330;2022-10-16T06:33:53;14.40;99.90
17815;DHT22;9031;50.974;11.330;2022-10-16T06:36:19;14.40;99.90
17815;DHT22;9031;50.974;11.330;2022-10-16T06:38:45;14.50;99.90
17815;DHT22;9031;50.974;11.330;2022-10-16T06:41:17;14.60;99.90
17815;DHT22;9031;50.974;11.330;2022-10-16T06:43:43;14.60;99.90
17815;DHT22;9031;50.974;11.330;2022-10-16T06:46:11;14.60;99.90
17815;DHT22;9031;50.974;11.330;2022-10-16T06:48:38;14.50;99.90
17815;DHT22;9031;50.974;11.330;2022-10-16T06:51:09;14.60;99.90
17815;DHT22;9031;50.974;11.330;2022-10-16T06:53:37;14.60;99.90
17815;DHT22;9031;50.974;11.330;2022-10-16T06:56:10;14.60;99.90
17815;DHT22;9031;50.974;11.330;2022-10-16T06:58:36;14.70;99.90
17815;DHT22;9031;50.974;11.330;2022-10-16T07:01:02;14.70;99.90
17815;DHT22;9031;50.974;11.330;2022-10-16T07:03:28;14.70;99.90
17815;DHT22;9031;50.974;11.330;2022-10-16T07:05:53;14.90;99.90
17815;DHT22;9031;50.974;11.330;2022-10-16T07:08:19;15.00;99.90
17815;DHT22;9031;50.974;11.330;2022-10-16T07:10:44;15.20;99.90
17815;DHT22;9031;50.974;11.330;2022-10-16T07:13:10;15.20;99.90
17815;DHT22;9031;50.974;11.330;2022-10-16T07:15:39;15.30;99.90
17815;DHT22;9031;50.974;11.330;2022-10-16T07:18:05;15.40;99.90
17815;DHT22;9031;50.974;11.330;2022-10-16T07:20:30;15.60;99.90
17815;DHT22;9031;50.974;11.330;2022-10-16T07:22:55;15.70;99.90
17815;DHT22;9031;50.974;11.330;2022-10-16T07:25:21;16.00;99.90
17815;DHT22;9031;50.974;11.330;2022-10-16T07:27:46;16.10;99.90
17815;DHT22;9031;50.974;11.330;2022-10-16T07:30:12;16.30;99.90
17815;DHT22;9031;50.974;11.330;2022-10-16T07:32:38;16.40;99.90
17815;DHT22;9031;50.974;11.330;2022-10-16T07:35:04;16.40;99.90
17815;DHT22;9031;50.974;11.330;2022-10-16T07:37:29;16.60;99.90
17815;DHT22;9031;50.974;11.330;2022-10-16T07:39:55;16.70;99.90
17815;DHT22;9031;50.974;11.330;2022-10-16T07:42:20;16.70;99.90
17815;DHT22;9031;50.974;11.330;2022-10-16T07:44:46;16.80;99.90
17815;DHT22;9031;50.974;11.330;2022-10-16T07:47:11;16.90;99.90
17815;DHT22;9031;50.974;11.330;2022-10-16T07:49:37;16.90;99.90
17815;DHT22;9031;50.974;11.330;2022-10-16T07:52:02;17.00;99.90
17815;DHT22;9031;50.974;11.330;2022-10-16T07:54:28;17.00;99.90
17815;DHT22;9031;50.974;11.330;2022-10-16T07:56:53;16.90;99.90
17815;DHT22;9031;50.974;11.330;2022-10-16T07:59:19;16.90;99.90
17815;DHT22;9031;50.974;11.330;2022-10-16T08:01:44;17.10;99.90
17815;DHT22;9031;50.974;11.330;2022-10-16T08:04:10;17.10;99.90
17815;DHT22;9031;50.974;11.330;2022-10-16T08:06:37;17.30;99.90
17815;DHT22;9031;50.974;11.330;2022-10-16T08:09:04;17.40;99.90
17815;DHT22;9031;50.974;11.330;2022-10-16T08:11:29;17.60;99.90
17815;DHT22;9031;50.974;11.330;2022-10-16T08:13:55;17.70;99.90
17815;DHT22;9031;50.974;11.330;2022-10-16T08:16:20;17.90;99.90
17815;DHT22;9031;50.974;11.330;2022-10-16T08:18:46;17.90;99.90
17815;DHT22;9031;50.974;11.330;2022-10-16T08:21:14;17.90;99.90
17815;DHT22;9031;50.974;11.330;2022-10-16T08:23:40;17.80;99.90
17815;DHT22;9031;50.974;11.330;2022-10-16T08:26:07;17.80;99.90
17815;DHT22;9031;50.974;11.330;2022-10-16T08:28:33;17.90;99.90
17815;DHT22;9031;50.974;11.330;2022-10-16T08:31:13;18.10;99.90
17815;DHT22;9031;50.974;11.330;2022-10-16T08:33:41;18.20;99.90
17815;DHT22;9031;50.974;11.330;2022-10-16T08:36:08;18.30;99.90
17815;DHT22;9031;50.974;11.330;2022-10-16T08:38:34;18.40;99.90
17815;DHT22;9031;50.974;11.330;2022-10-16T08:41:31;18.70;99.90
17815;DHT22;9031;50.974;11.330;2022-10-16T08:44:35;18.70;99.90
17815;DHT22;9031;50.974;11.330;2022-10-16T08:47:12;18.80;99.90
17815;DHT22;9031;50.974;11.330;2022-10-16T08:49:41;19.00;99.90
17815;DHT22;9031;50.974;11.330;2022-10-16T08:52:12;19.40;99.90
17815;DHT22;9031;50.974;11.330;2022-10-16T08:54:42;19.80;99.90
17815;DHT22;9031;50.974;11.330;2022-10-16T08:57:20;19.90;99.90
17815;DHT22;9031;50.974;11.330;2022-10-16T08:59:46;19.80;99.90
17815;DHT22;9031;50.974;11.330;2022-10-16T09:02:31;20.00;99.90
17815;DHT22;9031;50.974;11.330;2022-10-16T09:07:56;20.40;99.90
17815;DHT22;9031;50.974;11.330;2022-10-16T09:13:36;20.30;99.90
17815;DHT22;9031;50.974;11.330;2022-10-16T09:16:24;20.40;99.90
17815;DHT22;9031;50.974;11.330;2022-10-16T09:21:36;20.20;99.90
17815;DHT22;9031;50.974;11.330;2022-10-16T09:24:13;19.90;99.90
17815;DHT22;9031;50.974;11.330;2022-10-16T09:26:39;19.60;99.90
17815;DHT22;9031;50.974;11.330;2022-10-16T09:29:05;19.40;99.90
17815;DHT22;9031;50.974;11.330;2022-10-16T09:31:30;19.40;99.90
17815;DHT22;9031;50.974;11.330;2022-10-16T09:33:59;19.30;99.90
17815;DHT22;9031;50.974;11.330;2022-10-16T09:36:28;19.30;99.90
17815;DHT22;9031;50.974;11.330;2022-10-16T09:39:06;19.30;99.90
17815;DHT22;9031;50.974;11.330;2022-10-16T09:41:35;19.50;99.90
17815;DHT22;9031;50.974;11.330;2022-10-16T09:44:04;19.70;99.90
17815;DHT22;9031;50.974;11.330;2022-10-16T09:46:32;19.60;99.90
17815;DHT22;9031;50.974;11.330;2022-10-16T09:49:25;19.70;99.90
17815;DHT22;9031;50.974;11.330;2022-10-16T09:52:02;20.10;99.90
17815;DHT22;9031;50.974;11.330;2022-10-16T09:54:28;20.60;99.90
17815;DHT22;9031;50.974;11.330;2022-10-16T09:57:05;20.70;99.90
17815;DHT22;9031;50.974;11.330;2022-10-16T09:59:31;20.80;99.90
17815;DHT22;9031;50.974;11.330;2022-10-16T10:02:02;20.50;99.90
17815;DHT22;9031;50.974;11.330;2022-10-16T10:04:38;20.40;99.90
17815;DHT22;9031;50.974;11.330;2022-10-16T10:07:05;20.40;99.90
17815;DHT22;9031;50.974;11.330;2022-10-16T10:09:39;21.00;99.90
17815;DHT22;9031;50.974;11.330;2022-10-16T10:12:06;21.90;99.90
17815;DHT22;9031;50.974;11.330;2022-10-16T10:14:45;22.10;99.90
17815;DHT22;9031;50.974;11.330;2022-10-16T10:17:21;22.10;99.90
17815;DHT22;9031;50.974;11.330;2022-10-16T10:22:26;21.00;99.90
17815;DHT22;9031;50.974;11.330;2022-10-16T10:25:18;20.80;99.90
17815;DHT22;9031;50.974;11.330;2022-10-16T10:30:59;20.40;99.90
17815;DHT22;9031;50.974;11.330;2022-10-16T10:36:54;20.30;99.90
17815;DHT22;9031;50.974;11.330;2022-10-16T10:39:43;20.40;99.90
17815;DHT22;9031;50.974;11.330;2022-10-16T10:42:17;20.40;99.90
17815;DHT22;9031;50.974;11.330;2022-10-16T10:53:25;20.90;99.90
17815;DHT22;9031;50.974;11.330;2022-10-16T10:56:22;20.90;99.90
17815;DHT22;9031;50.974;11.330;2022-10-16T11:01:50;20.30;99.90
17815;DHT22;9031;50.974;11.330;2022-10-16T11:07:20;20.00;99.90
17815;DHT22;9031;50.974;11.330;2022-10-16T11:10:03;20.00;99.90
17815;DHT22;9031;50.974;11.330;2022-10-16T11:12:42;19.90;99.90
17815;DHT22;9031;50.974;11.330;2022-10-16T11:15:19;19.60;99.90
17815;DHT22;9031;50.974;11.330;2022-10-16T11:17:52;19.40;99.90
17815;DHT22;9031;50.974;11.330;2022-10-16T11:20:26;19.30;99.90
17815;DHT22;9031;50.974;11.330;2022-10-16T11:22:59;19.20;99.90
17815;DHT22;9031;50.974;11.330;2022-10-16T11:27:59;19.20;99.90
17815;DHT22;9031;50.974;11.330;2022-10-16T11:30:29;19.30;99.90
17815;DHT22;9031;50.974;11.330;2022-10-16T11:35:38;20.20;99.90
17815;DHT22;9031;50.974;11.330;2022-10-16T11:38:13;20.70;99.90
17815;DHT22;9031;50.974;11.330;2022-10-16T11:40:41;21.30;99.90
17815;DHT22;9031;50.974;11.330;2022-10-16T11:43:28;21.50;99.90
17815;DHT22;9031;50.974;11.330;2022-10-16T11:46:02;21.30;99.90
17815;DHT22;9031;50.974;11.330;2022-10-16T11:51:33;21.40;99.90
17815;DHT22;9031;50.974;11.330;2022-10-16T11:56:44;21.50;99.90
17815;DHT22;9031;50.974;11.330;2022-10-16T12:01:48;20.90;99.90
17815;DHT22;9031;50.974;11.330;2022-10-16T12:04:26;20.70;99.90
17815;DHT22;9031;50.974;11.330;2022-10-16T12:07:04;20.50;99.90
17815;DHT22;9031;50.974;11.330;2022-10-16T12:09:32;20.50;99.90
17815;DHT22;9031;50.974;11.330;2022-10-16T12:11:59;20.30;99.90
17815;DHT22;9031;50.974;11.330;2022-10-16T12:16:57;19.30;99.90
17815;DHT22;9031;50.974;11.330;2022-10-16T12:19:26;19.10;99.90
17815;DHT22;9031;50.974;11.330;2022-10-16T12:21:55;19.10;99.90
17815;DHT22;9031;50.974;11.330;2022-10-16T12:24:34;18.90;99.90
17815;DHT22;9031;50.974;11.330;2022-10-16T12:27:01;18.80;99.90
17815;DHT22;9031;50.974;11.330;2022-10-16T12:29:41;18.90;99.90
17815;DHT22;9031;50.974;11.330;2022-10-16T12:32:30;18.80;99.90
17815;DHT22;9031;50.974;11.330;2022-10-16T12:34:57;18.70;99.90
17815;DHT22;9031;50.974;11.330;2022-10-16T12:37:30;18.30;99.90
17815;DHT22;9031;50.974;11.330;2022-10-16T12:39:57;18.10;99.90
17815;DHT22;9031;50.974;11.330;2022-10-16T12:42:32;18.00;99.90
17815;DHT22;9031;50.974;11.330;2022-10-16T12:44:59;18.10;99.90
17815;DHT22;9031;50.974;11.330;2022-10-16T12:49:57;18.40;99.90
17815;DHT22;9031;50.974;11.330;2022-10-16T12:52:28;19.10;99.90
17815;DHT22;9031;50.974;11.330;2022-10-16T12:54:57;19.20;99.90
17815;DHT22;9031;50.974;11.330;2022-10-16T13:00:53;19.40;99.90
17815;DHT22;9031;50.974;11.330;2022-10-16T13:03:31;19.80;99.90
17815;DHT22;9031;50.974;11.330;2022-10-16T13:12:03;20.70;99.90
17815;DHT22;9031;50.974;11.330;2022-10-16T13:23:01;20.20;99.90
17815;DHT22;9031;50.974;11.330;2022-10-16T13:28:33;19.50;99.90
17815;DHT22;9031;50.974;11.330;2022-10-16T13:31:00;19.30;99.90
17815;DHT22;9031;50.974;11.330;2022-10-16T13:33:36;19.20;99.90
17815;DHT22;9031;50.974;11.330;2022-10-16T13:36:04;19.30;99.90
17815;DHT22;9031;50.974;11.330;2022-10-16T13:38:31;19.60;99.90
17815;DHT22;9031;50.974;11.330;2022-10-16T13:41:03;19.80;99.90
17815;DHT22;9031;50.974;11.330;2022-10-16T13:43:35;19.90;99.90
17815;DHT22;9031;50.974;11.330;2022-10-16T13:46:04;20.30;99.90
17815;DHT22;9031;50.974;11.330;2022-10-16T13:48:31;20.70;99.90
17815;DHT22;9031;50.974;11.330;2022-10-16T13:53:25;20.90;99.90
17815;DHT22;9031;50.974;11.330;2022-10-16T13:55:51;20.90;99.90
17815;DHT22;9031;50.974;11.330;2022-10-16T13:58:16;20.90;99.90
17815;DHT22;9031;50.974;11.330;2022-10-16T14:01:05;20.80;99.90
17815;DHT22;9031;50.974;11.330;2022-10-16T14:03:32;20.80;99.90
17815;DHT22;9031;50.974;11.330;2022-10-16T14:06:01;20.80;99.90
17815;DHT22;9031;50.974;11.330;2022-10-16T14:08:28;20.80;99.90
17815;DHT22;9031;50.974;11.330;2022-10-16T14:10:57;20.80;99.90
17815;DHT22;9031;50.974;11.330;2022-10-16T14:13:37;20.80;99.90
17815;DHT22;9031;50.974;11.330;2022-10-16T14:16:08;20.70;99.90
17815;DHT22;9031;50.974;11.330;2022-10-16T14:18:35;20.80;99.90
17815;DHT22;9031;50.974;11.330;2022-10-16T14:21:04;20.80;99.90
17815;DHT22;9031;50.974;11.330;2022-10-16T14:23:34;20.70;99.90
17815;DHT22;9031;50.974;11.330;2022-10-16T14:28:36;20.30;99.90
17815;DHT22;9031;50.974;11.330;2022-10-16T14:31:29;20.30;99.90
17815;DHT22;9031;50.974;11.330;2022-10-16T14:33:55;20.30;99.90
17815;DHT22;9031;50.974;11.330;2022-10-16T14:36:21;20.30;99.90
17815;DHT22;9031;50.974;11.330;2022-10-16T14:41:22;20.40;99.90
17815;DHT22;9031;50.974;11.330;2022-10-16T14:43:55;20.40;99.90
17815;DHT22;9031;50.974;11.330;2022-10-16T14:46:36;20.40;99.90
17815;DHT22;9031;50.974;11.330;2022-10-16T14:51:40;20.10;99.90
17815;DHT22;9031;50.974;11.330;2022-10-16T14:54:08;20.00;99.90
17815;DHT22;9031;50.974;11.330;2022-10-16T14:56:44;20.00;99.90
17815;DHT22;9031;50.974;11.330;2022-10-16T14:59:38;20.00;99.90
17815;DHT22;9031;50.974;11.330;2022-10-16T15:04:44;20.10;99.90
17815;DHT22;9031;50.974;11.330;2022-10-16T15:07:09;20.20;99.90
17815;DHT22;9031;50.974;11.330;2022-10-16T15:09:35;20.20;99.90
17815;DHT22;9031;50.974;11.330;2022-10-16T15:12:00;20.30;99.90
17815;DHT22;9031;50.974;11.330;2022-10-16T15:14:26;20.40;99.90
17815;DHT22;9031;50.974;11.330;2022-10-16T15:16:51;20.40;99.90
17815;DHT22;9031;50.974;11.330;2022-10-16T15:19:16;20.30;99.90
17815;DHT22;9031;50.974;11.330;2022-10-16T15:21:42;20.20;99.90
17815;DHT22;9031;50.974;11.330;2022-10-16T15:24:12;20.00;99.90
17815;DHT22;9031;50.974;11.330;2022-10-16T15:26:38;19.80;99.90
17815;DHT22;9031;50.974;11.330;2022-10-16T15:29:04;19.80;99.90
17815;DHT22;9031;50.974;11.330;2022-10-16T15:31:30;19.60;99.90
17815;DHT22;9031;50.974;11.330;2022-10-16T15:33:55;19.50;99.90
17815;DHT22;9031;50.974;11.330;2022-10-16T15:36:37;19.40;99.90
17815;DHT22;9031;50.974;11.330;2022-10-16T15:39:04;19.40;99.90
17815;DHT22;9031;50.974;11.330;2022-10-16T15:41:30;19.40;99.90
17815;DHT22;9031;50.974;11.330;2022-10-16T15:43:56;19.30;99.90
17815;DHT22;9031;50.974;11.330;2022-10-16T15:46:23;19.20;99.90
17815;DHT22;9031;50.974;11.330;2022-10-16T15:48:50;19.20;99.90
17815;DHT22;9031;50.974;11.330;2022-10-16T15:51:17;19.20;99.90
17815;DHT22;9031;50.974;11.330;2022-10-16T15:53:43;19.20;99.90
17815;DHT22;9031;50.974;11.330;2022-10-16T15:56:12;19.20;99.90
17815;DHT22;9031;50.974;11.330;2022-10-16T15:58:37;19.20;99.90
17815;DHT22;9031;50.974;11.330;2022-10-16T16:01:03;19.10;99.90
17815;DHT22;9031;50.974;11.330;2022-10-16T16:03:30;19.00;99.90
17815;DHT22;9031;50.974;11.330;2022-10-16T16:05:55;18.80;99.90
17815;DHT22;9031;50.974;11.330;2022-10-16T16:08:21;18.60;99.90
17815;DHT22;9031;50.974;11.330;2022-10-16T16:11:00;18.40;99.90
17815;DHT22;9031;50.974;11.330;2022-10-16T16:13:26;18.30;99.90
17815;DHT22;9031;50.974;11.330;2022-10-16T16:15:52;18.30;99.90
17815;DHT22;9031;50.974;11.330;2022-10-16T16:18:18;18.30;99.90
17815;DHT22;9031;50.974;11.330;2022-10-16T16:20:43;18.30;99.90
17815;DHT22;9031;50.974;11.330;2022-10-16T16:23:09;18.30;99.90
17815;DHT22;9031;50.974;11.330;2022-10-16T16:25:34;18.20;99.90
17815;DHT22;9031;50.974;11.330;2022-10-16T16:28:00;18.20;99.90
17815;DHT22;9031;50.974;11.330;2022-10-16T16:30:26;18.10;99.90
17815;DHT22;9031;50.974;11.330;2022-10-16T16:32:51;18.00;99.90
17815;DHT22;9031;50.974;11.330;2022-10-16T16:35:16;17.90;99.90
17815;DHT22;9031;50.974;11.330;2022-10-16T16:37:42;17.80;99.90
17815;DHT22;9031;50.974;11.330;2022-10-16T16:40:08;17.70;99.90
17815;DHT22;9031;50.974;11.330;2022-10-16T16:42:33;17.50;99.90
17815;DHT22;9031;50.974;11.330;2022-10-16T16:44:59;17.40;99.90
17815;DHT22;9031;50.974;11.330;2022-10-16T16:47:25;17.30;99.90
17815;DHT22;9031;50.974;11.330;2022-10-16T16:49:50;17.30;99.90
17815;DHT22;9031;50.974;11.330;2022-10-16T16:52:17;17.20;99.90
17815;DHT22;9031;50.974;11.330;2022-10-16T16:54:43;17.10;99.90
17815;DHT22;9031;50.974;11.330;2022-10-16T16:57:10;17.00;99.90
17815;DHT22;9031;50.974;11.330;2022-10-16T16:59:35;17.00;99.90
17815;DHT22;9031;50.974;11.330;2022-10-16T17:02:02;16.90;99.90
17815;DHT22;9031;50.974;11.330;2022-10-16T17:04:27;16.80;99.90
17815;DHT22;9031;50.974;11.330;2022-10-16T17:06:54;16.80;99.90
17815;DHT22;9031;50.974;11.330;2022-10-16T17:09:20;16.80;99.90
17815;DHT22;9031;50.974;11.330;2022-10-16T17:11:46;16.80;99.90
17815;DHT22;9031;50.974;11.330;2022-10-16T17:14:14;16.80;99.90
17815;DHT22;9031;50.974;11.330;2022-10-16T17:16:40;16.80;99.90